PWSweather.com
Personal Weather Stations
Station Observations
KIDJEROME
Sse Jerome Butte , Jerome, ID 83338

Sse Jerome Butte Jerome, ID 83338

Lat: 42.6981891, Lon: -114.4041362

Elevation: 3960

Station Type: Davis Vantage Pro 2

High Low Average
Temperature 36.9°F2.7°C 24.9°F-3.9°C 30.7°F-0.7°C
Dew Point 33.4°F0.8°C 22.9°F-5.1°C 28.4°F-2.0°C
Winds 6.0 mph 9.7 kmh Calm Calm 2.0 mph S3.2 kmh S
Wind Gusts 12.0 mph19.3 kmh -- 4.0 mph6.4 kmh
Humidity 97% 79% 91%
Pressure 30.38 in1028.8 mb 30.25 in1024.4 mb -
Precipitation 0.10 in2.5 mm - -
Hour Temp Dew Point Humidity Winds Wind Gusts Pressure Precip Precip Rate Daily Precip Total
12:00 AM 28.2°F-2.1°C 24.0°F-4.4°C 84% Calm Calm 2.0 mph3.2 kmh 30.30 in1026.1 mb 0.00 in0.0 mm 0.00 in0.0 mm 0.00 in0.0 mm
12:15 AM 27.5°F-2.5°C 23.6°F-4.7°C 85% 1.0 mph ENE1.6 kmh ENE 2.0 mph3.2 kmh 30.29 in1025.7 mb 0.00 in0.0 mm 0.00 in0.0 mm 0.00 in0.0 mm
12:30 AM 27.1°F-2.7°C 22.9°F-5.1°C 84% Calm Calm 1.0 mph1.6 kmh 30.29 in1025.7 mb 0.00 in0.0 mm 0.00 in0.0 mm 0.00 in0.0 mm
12:45 AM 27.5°F-2.5°C 23.6°F-4.7°C 85% 1.0 mph N1.6 kmh N 3.0 mph4.8 kmh 30.29 in1025.7 mb 0.00 in0.0 mm 0.00 in0.0 mm 0.00 in0.0 mm
01:00 AM 28.2°F-2.1°C 23.7°F-4.6°C 83% 1.0 mph NE1.6 kmh NE 3.0 mph4.8 kmh 30.30 in1026.1 mb 0.00 in0.0 mm 0.00 in0.0 mm 0.00 in0.0 mm
01:15 AM 28.1°F-2.2°C 23.9°F-4.5°C 84% Calm Calm 1.0 mph1.6 kmh 30.29 in1025.7 mb 0.00 in0.0 mm 0.00 in0.0 mm 0.00 in0.0 mm
01:30 AM 27.9°F-2.3°C 24.0°F-4.4°C 85% Calm Calm -- 30.29 in1025.7 mb 0.00 in0.0 mm 0.00 in0.0 mm 0.00 in0.0 mm
01:45 AM 29.2°F-1.6°C 25.0°F-3.9°C 84% Calm Calm -- 30.29 in1025.7 mb 0.00 in0.0 mm 0.00 in0.0 mm 0.00 in0.0 mm
02:00 AM 30.1°F-1.1°C 24.7°F-4.1°C 80% Calm Calm -- 30.29 in1025.7 mb 0.00 in0.0 mm 0.00 in0.0 mm 0.00 in0.0 mm
02:15 AM 30.4°F-0.9°C 25.0°F-3.9°C 80% Calm Calm -- 30.29 in1025.7 mb 0.00 in0.0 mm 0.00 in0.0 mm 0.00 in0.0 mm
02:30 AM 30.9°F-0.6°C 25.2°F-3.8°C 79% Calm Calm 2.0 mph3.2 kmh 30.29 in1025.7 mb 0.00 in0.0 mm 0.00 in0.0 mm 0.00 in0.0 mm
02:45 AM 31.1°F-0.5°C 25.3°F-3.7°C 79% 1.0 mph WSW1.6 kmh WSW 4.0 mph6.4 kmh 30.30 in1026.1 mb 0.00 in0.0 mm 0.00 in0.0 mm 0.00 in0.0 mm
03:00 AM 29.9°F-1.2°C 25.7°F-3.5°C 84% 2.0 mph SE3.2 kmh SE 4.0 mph6.4 kmh 30.30 in1026.1 mb 0.00 in0.0 mm 0.00 in0.0 mm 0.00 in0.0 mm
03:15 AM 29.6°F-1.3°C 25.9°F-3.4°C 86% Calm Calm 1.0 mph1.6 kmh 30.31 in1026.4 mb 0.00 in0.0 mm 0.00 in0.0 mm 0.00 in0.0 mm
03:30 AM 29.0°F-1.7°C 26.7°F-2.9°C 91% Calm Calm 3.0 mph4.8 kmh 30.29 in1025.7 mb 0.00 in0.0 mm 0.00 in0.0 mm 0.00 in0.0 mm
03:45 AM 29.2°F-1.6°C 27.4°F-2.6°C 93% 2.0 mph NE3.2 kmh NE 3.0 mph4.8 kmh 30.28 in1025.4 mb 0.00 in0.0 mm 0.00 in0.0 mm 0.00 in0.0 mm
04:00 AM 29.7°F-1.3°C 28.2°F-2.1°C 94% 3.0 mph N4.8 kmh N 4.0 mph6.4 kmh 30.28 in1025.4 mb 0.00 in0.0 mm 0.00 in0.0 mm 0.00 in0.0 mm
04:15 AM 30.1°F-1.1°C 28.6°F-1.9°C 94% 2.0 mph NNE3.2 kmh NNE 4.0 mph6.4 kmh 30.27 in1025.1 mb 0.00 in0.0 mm 0.00 in0.0 mm 0.00 in0.0 mm
04:30 AM 30.3°F-0.9°C 28.5°F-1.9°C 93% 3.0 mph NE4.8 kmh NE 4.0 mph6.4 kmh 30.26 in1024.7 mb 0.00 in0.0 mm 0.00 in0.0 mm 0.00 in0.0 mm
04:45 AM 30.5°F-0.8°C 28.5°F-1.9°C 92% 2.0 mph NE3.2 kmh NE 3.0 mph4.8 kmh 30.26 in1024.7 mb 0.00 in0.0 mm 0.00 in0.0 mm 0.00 in0.0 mm
05:00 AM 30.4°F-0.9°C 28.1°F-2.2°C 91% 2.0 mph NE3.2 kmh NE 5.0 mph8.0 kmh 30.26 in1024.7 mb 0.00 in0.0 mm 0.00 in0.0 mm 0.00 in0.0 mm
05:15 AM 30.1°F-1.1°C 27.8°F-2.3°C 91% 4.0 mph NNE6.4 kmh NNE 8.0 mph12.9 kmh 30.26 in1024.7 mb 0.00 in0.0 mm 0.00 in0.0 mm 0.00 in0.0 mm
05:30 AM 30.5°F-0.8°C 27.6°F-2.4°C 89% 3.0 mph NNE4.8 kmh NNE 4.0 mph6.4 kmh 30.26 in1024.7 mb 0.00 in0.0 mm 0.00 in0.0 mm 0.00 in0.0 mm
05:45 AM 30.1°F-1.1°C 27.5°F-2.5°C 90% 1.0 mph ESE1.6 kmh ESE 12.0 mph19.3 kmh 30.26 in1024.7 mb 0.00 in0.0 mm 0.00 in0.0 mm 0.00 in0.0 mm
06:00 AM 29.5°F-1.4°C 27.5°F-2.5°C 92% 3.0 mph E4.8 kmh E 6.0 mph9.7 kmh 30.26 in1024.7 mb 0.00 in0.0 mm 0.00 in0.0 mm 0.00 in0.0 mm
06:15 AM 29.5°F-1.4°C 27.7°F-2.4°C 93% 1.0 mph E1.6 kmh E 3.0 mph4.8 kmh 30.26 in1024.7 mb 0.00 in0.0 mm 0.00 in0.0 mm 0.00 in0.0 mm
06:30 AM 29.7°F-1.3°C 27.9°F-2.3°C 93% 1.0 mph E1.6 kmh E 3.0 mph4.8 kmh 30.25 in1024.4 mb 0.00 in0.0 mm 0.00 in0.0 mm 0.00 in0.0 mm
06:45 AM 30.0°F-1.1°C 28.2°F-2.1°C 93% 2.0 mph E3.2 kmh E 4.0 mph6.4 kmh 30.26 in1024.7 mb 0.00 in0.0 mm 0.00 in0.0 mm 0.00 in0.0 mm
07:00 AM 30.1°F-1.1°C 28.3°F-2.1°C 93% 1.0 mph ENE1.6 kmh ENE 2.0 mph3.2 kmh 30.27 in1025.1 mb 0.00 in0.0 mm 0.00 in0.0 mm 0.00 in0.0 mm
07:15 AM 30.1°F-1.1°C 28.3°F-2.1°C 93% Calm Calm 1.0 mph1.6 kmh 30.27 in1025.1 mb 0.00 in0.0 mm 0.00 in0.0 mm 0.00 in0.0 mm
07:30 AM 30.0°F-1.1°C 28.5°F-1.9°C 94% Calm Calm 1.0 mph1.6 kmh 30.27 in1025.1 mb 0.00 in0.0 mm 0.00 in0.0 mm 0.00 in0.0 mm
07:45 AM 29.9°F-1.2°C 28.6°F-1.9°C 95% Calm Calm 2.0 mph3.2 kmh 30.26 in1024.7 mb 0.00 in0.0 mm 0.00 in0.0 mm 0.00 in0.0 mm
08:00 AM 29.5°F-1.4°C 28.2°F-2.1°C 95% 1.0 mph SE1.6 kmh SE 2.0 mph3.2 kmh 30.27 in1025.1 mb 0.00 in0.0 mm 0.00 in0.0 mm 0.00 in0.0 mm
08:15 AM 29.4°F-1.4°C 28.4°F-2.0°C 96% Calm Calm 1.0 mph1.6 kmh 30.26 in1024.7 mb 0.00 in0.0 mm 0.00 in0.0 mm 0.00 in0.0 mm
08:30 AM 29.4°F-1.4°C 28.4°F-2.0°C 96% 1.0 mph SE1.6 kmh SE 2.0 mph3.2 kmh 30.27 in1025.1 mb 0.00 in0.0 mm 0.00 in0.0 mm 0.00 in0.0 mm
08:45 AM 29.6°F-1.3°C 28.6°F-1.9°C 96% Calm Calm -- 30.26 in1024.7 mb 0.00 in0.0 mm 0.00 in0.0 mm 0.00 in0.0 mm
09:00 AM 29.7°F-1.3°C 29.0°F-1.7°C 97% Calm Calm 1.0 mph1.6 kmh 30.27 in1025.1 mb 0.00 in0.0 mm 0.00 in0.0 mm 0.00 in0.0 mm
09:15 AM 30.1°F-1.1°C 29.4°F-1.4°C 97% Calm Calm 2.0 mph3.2 kmh 30.27 in1025.1 mb 0.00 in0.0 mm 0.00 in0.0 mm 0.00 in0.0 mm
09:30 AM 30.5°F-0.8°C 29.8°F-1.2°C 97% Calm Calm 1.0 mph1.6 kmh 30.27 in1025.1 mb 0.00 in0.0 mm 0.00 in0.0 mm 0.00 in0.0 mm
09:45 AM 30.8°F-0.7°C 29.8°F-1.2°C 96% Calm Calm -- 30.27 in1025.1 mb 0.00 in0.0 mm 0.00 in0.0 mm 0.00 in0.0 mm
10:00 AM 31.2°F-0.4°C 30.2°F-1.0°C 96% Calm Calm -- 30.27 in1025.1 mb 0.00 in0.0 mm 0.00 in0.0 mm 0.00 in0.0 mm
10:15 AM 31.8°F-0.1°C 30.8°F-0.7°C 96% Calm Calm -- 30.28 in1025.4 mb 0.00 in0.0 mm 0.00 in0.0 mm 0.00 in0.0 mm
10:30 AM 32.7°F0.4°C 31.4°F-0.3°C 95% Calm Calm -- 30.28 in1025.4 mb 0.00 in0.0 mm 0.00 in0.0 mm 0.00 in0.0 mm
10:45 AM 32.9°F0.5°C 31.4°F-0.3°C 94% Calm Calm -- 30.28 in1025.4 mb 0.00 in0.0 mm 0.00 in0.0 mm 0.00 in0.0 mm
11:00 AM 34.0°F1.1°C 31.9°F-0.1°C 92% Calm Calm 1.0 mph1.6 kmh 30.28 in1025.4 mb 0.00 in0.0 mm 0.00 in0.0 mm 0.00 in0.0 mm
11:15 AM 35.6°F2.0°C 33.2°F0.7°C 91% Calm Calm 1.0 mph1.6 kmh 30.28 in1025.4 mb 0.00 in0.0 mm 0.00 in0.0 mm 0.00 in0.0 mm
11:30 AM 36.0°F2.2°C 32.8°F0.4°C 88% Calm Calm 1.0 mph1.6 kmh 30.28 in1025.4 mb 0.00 in0.0 mm 0.00 in0.0 mm 0.00 in0.0 mm
11:45 AM 34.7°F1.5°C 32.3°F0.2°C 91% 1.0 mph WSW1.6 kmh WSW 3.0 mph4.8 kmh 30.28 in1025.4 mb 0.00 in0.0 mm 0.00 in0.0 mm 0.00 in0.0 mm
12:00 PM 35.0°F1.7°C 32.9°F0.5°C 92% 2.0 mph WSW3.2 kmh WSW 3.0 mph4.8 kmh 30.27 in1025.1 mb 0.00 in0.0 mm 0.00 in0.0 mm 0.00 in0.0 mm
12:15 PM 35.6°F2.0°C 33.2°F0.7°C 91% 1.0 mph W1.6 kmh W 4.0 mph6.4 kmh 30.27 in1025.1 mb 0.00 in0.0 mm 0.00 in0.0 mm 0.00 in0.0 mm
12:30 PM 35.5°F1.9°C 32.9°F0.5°C 90% 3.0 mph W4.8 kmh W 5.0 mph8.0 kmh 30.27 in1025.1 mb 0.00 in0.0 mm 0.00 in0.0 mm 0.00 in0.0 mm
12:45 PM 35.5°F1.9°C 32.9°F0.5°C 90% 4.0 mph W6.4 kmh W 6.0 mph9.7 kmh 30.27 in1025.1 mb 0.00 in0.0 mm 0.00 in0.0 mm 0.00 in0.0 mm
01:00 PM 35.7°F2.1°C 33.1°F0.6°C 90% 3.0 mph W4.8 kmh W 4.0 mph6.4 kmh 30.27 in1025.1 mb 0.00 in0.0 mm 0.00 in0.0 mm 0.00 in0.0 mm
01:15 PM 36.0°F2.2°C 33.4°F0.8°C 90% 3.0 mph W4.8 kmh W 6.0 mph9.7 kmh 30.26 in1024.7 mb 0.00 in0.0 mm 0.00 in0.0 mm 0.00 in0.0 mm
01:30 PM 35.7°F2.1°C 32.8°F0.4°C 89% 4.0 mph W6.4 kmh W 6.0 mph9.7 kmh 30.25 in1024.4 mb 0.00 in0.0 mm 0.00 in0.0 mm 0.00 in0.0 mm
01:45 PM 36.4°F2.4°C 33.2°F0.7°C 88% 4.0 mph WNW6.4 kmh WNW 8.0 mph12.9 kmh 30.26 in1024.7 mb 0.00 in0.0 mm 0.00 in0.0 mm 0.00 in0.0 mm
02:00 PM 36.2°F2.3°C 33.0°F0.6°C 88% 5.0 mph WNW8.0 kmh WNW 7.0 mph11.3 kmh 30.25 in1024.4 mb 0.00 in0.0 mm 0.00 in0.0 mm 0.00 in0.0 mm
02:15 PM 36.2°F2.3°C 33.0°F0.6°C 88% 4.0 mph NW6.4 kmh NW 8.0 mph12.9 kmh 30.25 in1024.4 mb 0.00 in0.0 mm 0.00 in0.0 mm 0.00 in0.0 mm
02:30 PM 36.2°F2.3°C 33.0°F0.6°C 88% 4.0 mph NW6.4 kmh NW 8.0 mph12.9 kmh 30.26 in1024.7 mb 0.00 in0.0 mm 0.00 in0.0 mm 0.00 in0.0 mm
02:45 PM 36.2°F2.3°C 33.0°F0.6°C 88% 6.0 mph NW9.7 kmh NW 9.0 mph14.5 kmh 30.26 in1024.7 mb 0.01 in0.3 mm 0.04 in1.0 mm 0.01 in0.3 mm
03:00 PM 36.6°F2.6°C 33.1°F0.6°C 87% 5.0 mph WNW8.0 kmh WNW 8.0 mph12.9 kmh 30.27 in1025.1 mb 0.03 in0.8 mm 0.03 in0.8 mm 0.03 in0.8 mm
03:15 PM 36.9°F2.7°C 32.8°F0.4°C 85% 6.0 mph WNW9.7 kmh WNW 9.0 mph14.5 kmh 30.27 in1025.1 mb 0.04 in1.0 mm 0.04 in1.0 mm 0.04 in1.0 mm
03:30 PM 36.6°F2.6°C 32.8°F0.4°C 86% 4.0 mph WNW6.4 kmh WNW 7.0 mph11.3 kmh 30.27 in1025.1 mb 0.06 in1.5 mm 0.08 in2.0 mm 0.06 in1.5 mm
03:45 PM 35.6°F2.0°C 31.8°F-0.1°C 86% 4.0 mph WNW6.4 kmh WNW 9.0 mph14.5 kmh 30.27 in1025.1 mb 0.06 in1.5 mm 0.00 in0.0 mm 0.07 in1.8 mm
04:00 PM 35.3°F1.8°C 32.4°F0.2°C 89% 4.0 mph WNW6.4 kmh WNW 5.0 mph8.0 kmh 30.28 in1025.4 mb 0.04 in1.0 mm 0.00 in0.0 mm 0.07 in1.8 mm
04:15 PM 35.4°F1.9°C 32.2°F0.1°C 88% 4.0 mph W6.4 kmh W 7.0 mph11.3 kmh 30.29 in1025.7 mb 0.04 in1.0 mm 0.00 in0.0 mm 0.08 in2.0 mm
04:30 PM 35.6°F2.0°C 32.1°F0.1°C 87% 4.0 mph WNW6.4 kmh WNW 6.0 mph9.7 kmh 30.29 in1025.7 mb 0.02 in0.5 mm 0.00 in0.0 mm 0.08 in2.0 mm
04:45 PM 34.5°F1.4°C 31.0°F-0.6°C 87% 3.0 mph WNW4.8 kmh WNW 5.0 mph8.0 kmh 30.29 in1025.7 mb 0.02 in0.5 mm 0.00 in0.0 mm 0.09 in2.3 mm
05:00 PM 33.8°F1.0°C 30.9°F-0.6°C 89% 3.0 mph WNW4.8 kmh WNW 4.0 mph6.4 kmh 30.30 in1026.1 mb 0.02 in0.5 mm 0.00 in0.0 mm 0.09 in2.3 mm
05:15 PM 34.0°F1.1°C 31.1°F-0.5°C 89% 2.0 mph NW3.2 kmh NW 2.0 mph3.2 kmh 30.30 in1026.1 mb 0.01 in0.3 mm 0.00 in0.0 mm 0.09 in2.3 mm
05:30 PM 31.6°F-0.2°C 29.0°F-1.7°C 90% 1.0 mph WNW1.6 kmh WNW 3.0 mph4.8 kmh 30.30 in1026.1 mb 0.02 in0.5 mm 0.04 in1.0 mm 0.10 in2.5 mm
05:45 PM 29.8°F-1.2°C 27.8°F-2.3°C 92% 2.0 mph W3.2 kmh W 3.0 mph4.8 kmh 30.31 in1026.4 mb 0.01 in0.3 mm 0.00 in0.0 mm 0.10 in2.5 mm
06:00 PM 30.0°F-1.1°C 28.0°F-2.2°C 92% 3.0 mph W4.8 kmh W 4.0 mph6.4 kmh 30.32 in1026.8 mb 0.01 in0.3 mm 0.00 in0.0 mm 0.10 in2.5 mm
06:15 PM 29.7°F-1.3°C 27.7°F-2.4°C 92% 2.0 mph NW3.2 kmh NW 4.0 mph6.4 kmh 30.32 in1026.8 mb 0.01 in0.3 mm 0.00 in0.0 mm 0.10 in2.5 mm
06:30 PM 30.7°F-0.7°C 28.7°F-1.8°C 92% 4.0 mph NW6.4 kmh NW 4.0 mph6.4 kmh 30.33 in1027.1 mb 0.00 in0.0 mm 0.00 in0.0 mm 0.10 in2.5 mm
06:45 PM 29.7°F-1.3°C 27.7°F-2.4°C 92% 3.0 mph WNW4.8 kmh WNW 4.0 mph6.4 kmh 30.33 in1027.1 mb 0.00 in0.0 mm 0.00 in0.0 mm 0.10 in2.5 mm
07:00 PM 29.5°F-1.4°C 27.7°F-2.4°C 93% 3.0 mph NW4.8 kmh NW 4.0 mph6.4 kmh 30.33 in1027.1 mb 0.00 in0.0 mm 0.00 in0.0 mm 0.10 in2.5 mm
07:15 PM 28.9°F-1.7°C 26.9°F-2.8°C 92% 3.0 mph WNW4.8 kmh WNW 4.0 mph6.4 kmh 30.34 in1027.4 mb 0.00 in0.0 mm 0.00 in0.0 mm 0.10 in2.5 mm
07:30 PM 28.1°F-2.2°C 26.3°F-3.2°C 93% 1.0 mph NW1.6 kmh NW 2.0 mph3.2 kmh 30.34 in1027.4 mb 0.00 in0.0 mm 0.00 in0.0 mm 0.10 in2.5 mm
07:45 PM 27.6°F-2.4°C 26.4°F-3.1°C 95% 1.0 mph WNW1.6 kmh WNW 2.0 mph3.2 kmh 30.34 in1027.4 mb 0.00 in0.0 mm 0.00 in0.0 mm 0.10 in2.5 mm
08:00 PM 27.8°F-2.3°C 26.6°F-3.0°C 95% 2.0 mph WNW3.2 kmh WNW 3.0 mph4.8 kmh 30.34 in1027.4 mb 0.00 in0.0 mm 0.00 in0.0 mm 0.10 in2.5 mm
08:15 PM 27.6°F-2.4°C 26.6°F-3.0°C 96% 2.0 mph NW3.2 kmh NW 3.0 mph4.8 kmh 30.34 in1027.4 mb 0.00 in0.0 mm 0.00 in0.0 mm 0.10 in2.5 mm
08:30 PM 28.3°F-2.1°C 27.3°F-2.6°C 96% 2.0 mph NW3.2 kmh NW 2.0 mph3.2 kmh 30.35 in1027.8 mb 0.00 in0.0 mm 0.00 in0.0 mm 0.10 in2.5 mm
08:45 PM 27.1°F-2.7°C 25.6°F-3.6°C 94% 2.0 mph NW3.2 kmh NW 3.0 mph4.8 kmh 30.35 in1027.8 mb 0.00 in0.0 mm 0.00 in0.0 mm 0.10 in2.5 mm
09:00 PM 26.5°F-3.1°C 25.5°F-3.6°C 96% 2.0 mph WNW3.2 kmh WNW 4.0 mph6.4 kmh 30.36 in1028.1 mb 0.00 in0.0 mm 0.00 in0.0 mm 0.10 in2.5 mm
09:15 PM 26.4°F-3.1°C 25.4°F-3.7°C 96% 2.0 mph WNW3.2 kmh WNW 4.0 mph6.4 kmh 30.36 in1028.1 mb 0.00 in0.0 mm 0.00 in0.0 mm 0.10 in2.5 mm
09:30 PM 26.6°F-3.0°C 25.4°F-3.7°C 95% 2.0 mph WNW3.2 kmh WNW 3.0 mph4.8 kmh 30.36 in1028.1 mb 0.00 in0.0 mm 0.00 in0.0 mm 0.10 in2.5 mm
09:45 PM 25.8°F-3.4°C 24.3°F-4.3°C 94% 2.0 mph WNW3.2 kmh WNW 3.0 mph4.8 kmh 30.37 in1028.4 mb 0.00 in0.0 mm 0.00 in0.0 mm 0.10 in2.5 mm
10:00 PM 25.6°F-3.6°C 24.4°F-4.2°C 95% 3.0 mph WNW4.8 kmh WNW 4.0 mph6.4 kmh 30.38 in1028.8 mb 0.00 in0.0 mm 0.00 in0.0 mm 0.10 in2.5 mm
10:15 PM 25.5°F-3.6°C 24.5°F-4.2°C 96% 3.0 mph WNW4.8 kmh WNW 4.0 mph6.4 kmh 30.37 in1028.4 mb 0.00 in0.0 mm 0.00 in0.0 mm 0.10 in2.5 mm
10:30 PM 26.1°F-3.3°C 25.1°F-3.8°C 96% 3.0 mph WNW4.8 kmh WNW 6.0 mph9.7 kmh 30.38 in1028.8 mb 0.00 in0.0 mm 0.00 in0.0 mm 0.10 in2.5 mm
10:45 PM 25.1°F-3.8°C 23.9°F-4.5°C 95% 2.0 mph W3.2 kmh W 3.0 mph4.8 kmh 30.37 in1028.4 mb 0.00 in0.0 mm 0.00 in0.0 mm 0.10 in2.5 mm
11:00 PM 24.9°F-3.9°C 23.7°F-4.6°C 95% 3.0 mph W4.8 kmh W 3.0 mph4.8 kmh 30.37 in1028.4 mb 0.00 in0.0 mm 0.00 in0.0 mm 0.10 in2.5 mm
11:15 PM 24.9°F-3.9°C 23.9°F-4.5°C 96% 2.0 mph WNW3.2 kmh WNW 3.0 mph4.8 kmh 30.37 in1028.4 mb 0.00 in0.0 mm 0.00 in0.0 mm 0.10 in2.5 mm
11:30 PM 25.2°F-3.8°C 24.0°F-4.4°C 95% 3.0 mph WNW4.8 kmh WNW 4.0 mph6.4 kmh 30.38 in1028.8 mb 0.00 in0.0 mm 0.00 in0.0 mm 0.10 in2.5 mm
11:45 PM 25.8°F-3.4°C 24.3°F-4.3°C 94% 3.0 mph WNW4.8 kmh WNW 4.0 mph6.4 kmh 30.37 in1028.4 mb 0.00 in0.0 mm 0.00 in0.0 mm 0.10 in2.5 mm